sensor_id;sensor_type;location;lat;lon;timestamp;P1;durP1;ratioP1;P2;durP2;ratioP2
27999;SDS011;15328;50.860;10.562;2023-04-03T00:02:11;8.93;;;2.47;;
27999;SDS011;15328;50.860;10.562;2023-04-03T00:07:12;10.13;;;2.80;;
27999;SDS011;15328;50.860;10.562;2023-04-03T00:12:12;5.40;;;1.73;;
27999;SDS011;15328;50.860;10.562;2023-04-03T00:17:12;3.57;;;1.90;;
27999;SDS011;15328;50.860;10.562;2023-04-03T00:22:13;6.65;;;1.73;;
27999;SDS011;15328;50.860;10.562;2023-04-03T00:27:13;7.68;;;2.20;;
27999;SDS011;15328;50.860;10.562;2023-04-03T00:32:13;5.22;;;1.75;;
27999;SDS011;15328;50.860;10.562;2023-04-03T00:37:14;6.28;;;1.80;;
27999;SDS011;15328;50.860;10.562;2023-04-03T00:42:14;7.75;;;1.83;;
27999;SDS011;15328;50.860;10.562;2023-04-03T00:47:16;4.13;;;1.25;;
27999;SDS011;15328;50.860;10.562;2023-04-03T00:52:19;7.05;;;2.40;;
27999;SDS011;15328;50.860;10.562;2023-04-03T00:57:23;6.30;;;2.28;;
27999;SDS011;15328;50.860;10.562;2023-04-03T01:02:24;5.95;;;1.50;;
27999;SDS011;15328;50.860;10.562;2023-04-03T01:07:27;4.95;;;1.52;;
27999;SDS011;15328;50.860;10.562;2023-04-03T01:12:31;4.38;;;1.80;;
27999;SDS011;15328;50.860;10.562;2023-04-03T01:17:43;8.40;;;1.75;;
27999;SDS011;15328;50.860;10.562;2023-04-03T01:28:12;5.80;;;1.92;;
27999;SDS011;15328;50.860;10.562;2023-04-03T01:33:16;5.93;;;1.63;;
27999;SDS011;15328;50.860;10.562;2023-04-03T01:38:17;5.93;;;2.03;;
27999;SDS011;15328;50.860;10.562;2023-04-03T01:43:17;5.70;;;1.70;;
27999;SDS011;15328;50.860;10.562;2023-04-03T01:48:18;6.38;;;1.60;;
27999;SDS011;15328;50.860;10.562;2023-04-03T01:53:18;5.30;;;1.67;;
27999;SDS011;15328;50.860;10.562;2023-04-03T01:58:18;6.75;;;1.88;;
27999;SDS011;15328;50.860;10.562;2023-04-03T02:03:19;6.32;;;1.73;;
27999;SDS011;15328;50.860;10.562;2023-04-03T02:08:20;8.18;;;1.90;;
27999;SDS011;15328;50.860;10.562;2023-04-03T02:13:20;8.23;;;2.13;;
27999;SDS011;15328;50.860;10.562;2023-04-03T02:18:21;9.02;;;2.30;;
27999;SDS011;15328;50.860;10.562;2023-04-03T02:23:21;5.87;;;1.90;;
27999;SDS011;15328;50.860;10.562;2023-04-03T02:28:21;9.53;;;1.97;;
27999;SDS011;15328;50.860;10.562;2023-04-03T02:33:22;6.82;;;2.38;;
27999;SDS011;15328;50.860;10.562;2023-04-03T02:38:22;6.43;;;1.88;;
27999;SDS011;15328;50.860;10.562;2023-04-03T02:43:23;5.72;;;2.05;;
27999;SDS011;15328;50.860;10.562;2023-04-03T02:48:23;6.43;;;2.10;;
27999;SDS011;15328;50.860;10.562;2023-04-03T02:53:24;5.55;;;2.20;;
27999;SDS011;15328;50.860;10.562;2023-04-03T02:58:24;7.33;;;2.10;;
27999;SDS011;15328;50.860;10.562;2023-04-03T03:03:25;4.73;;;1.80;;
27999;SDS011;15328;50.860;10.562;2023-04-03T03:08:25;7.65;;;2.20;;
27999;SDS011;15328;50.860;10.562;2023-04-03T03:13:25;4.38;;;1.77;;
27999;SDS011;15328;50.860;10.562;2023-04-03T03:18:26;9.15;;;2.45;;
27999;SDS011;15328;50.860;10.562;2023-04-03T03:23:27;6.97;;;2.40;;
27999;SDS011;15328;50.860;10.562;2023-04-03T03:28:28;4.85;;;2.33;;
27999;SDS011;15328;50.860;10.562;2023-04-03T03:33:29;5.88;;;3.00;;
27999;SDS011;15328;50.860;10.562;2023-04-03T03:38:30;7.78;;;2.90;;
27999;SDS011;15328;50.860;10.562;2023-04-03T03:43:30;6.83;;;2.77;;
27999;SDS011;15328;50.860;10.562;2023-04-03T03:48:31;5.82;;;2.63;;
27999;SDS011;15328;50.860;10.562;2023-04-03T03:53:31;7.45;;;3.20;;
27999;SDS011;15328;50.860;10.562;2023-04-03T03:58:31;6.73;;;2.87;;
27999;SDS011;15328;50.860;10.562;2023-04-03T04:03:32;14.93;;;5.80;;
27999;SDS011;15328;50.860;10.562;2023-04-03T04:08:33;8.18;;;3.80;;
27999;SDS011;15328;50.860;10.562;2023-04-03T04:13:33;8.63;;;3.40;;
27999;SDS011;15328;50.860;10.562;2023-04-03T04:18:34;9.40;;;3.92;;
27999;SDS011;15328;50.860;10.562;2023-04-03T04:23:34;7.82;;;3.53;;
27999;SDS011;15328;50.860;10.562;2023-04-03T04:28:34;8.43;;;4.15;;
27999;SDS011;15328;50.860;10.562;2023-04-03T04:33:35;9.98;;;4.97;;
27999;SDS011;15328;50.860;10.562;2023-04-03T04:38:35;6.85;;;4.30;;
27999;SDS011;15328;50.860;10.562;2023-04-03T04:43:36;10.60;;;4.63;;
27999;SDS011;15328;50.860;10.562;2023-04-03T04:48:36;8.82;;;4.00;;
27999;SDS011;15328;50.860;10.562;2023-04-03T04:53:37;12.88;;;5.63;;
27999;SDS011;15328;50.860;10.562;2023-04-03T04:58:37;9.75;;;4.90;;
27999;SDS011;15328;50.860;10.562;2023-04-03T05:03:38;9.20;;;4.80;;
27999;SDS011;15328;50.860;10.562;2023-04-03T05:08:38;8.85;;;4.68;;
27999;SDS011;15328;50.860;10.562;2023-04-03T05:13:38;12.87;;;5.20;;
27999;SDS011;15328;50.860;10.562;2023-04-03T05:18:39;11.63;;;5.72;;
27999;SDS011;15328;50.860;10.562;2023-04-03T05:23:39;11.90;;;5.20;;
27999;SDS011;15328;50.860;10.562;2023-04-03T05:28:40;11.25;;;5.25;;
27999;SDS011;15328;50.860;10.562;2023-04-03T05:33:40;13.07;;;5.40;;
27999;SDS011;15328;50.860;10.562;2023-04-03T05:38:40;7.67;;;4.83;;
27999;SDS011;15328;50.860;10.562;2023-04-03T05:43:41;10.88;;;5.32;;
27999;SDS011;15328;50.860;10.562;2023-04-03T05:48:41;9.18;;;5.70;;
27999;SDS011;15328;50.860;10.562;2023-04-03T05:53:42;12.13;;;5.82;;
27999;SDS011;15328;50.860;10.562;2023-04-03T05:58:45;13.45;;;5.88;;
27999;SDS011;15328;50.860;10.562;2023-04-03T06:03:45;9.07;;;4.80;;
27999;SDS011;15328;50.860;10.562;2023-04-03T06:08:45;14.02;;;6.50;;
27999;SDS011;15328;50.860;10.562;2023-04-03T06:13:46;11.20;;;5.70;;
27999;SDS011;15328;50.860;10.562;2023-04-03T06:18:46;12.43;;;6.93;;
27999;SDS011;15328;50.860;10.562;2023-04-03T06:23:46;15.30;;;7.00;;
27999;SDS011;15328;50.860;10.562;2023-04-03T06:28:47;15.65;;;7.05;;
27999;SDS011;15328;50.860;10.562;2023-04-03T06:33:47;10.00;;;6.32;;
27999;SDS011;15328;50.860;10.562;2023-04-03T06:38:48;9.25;;;5.82;;
27999;SDS011;15328;50.860;10.562;2023-04-03T06:43:49;12.40;;;6.20;;
27999;SDS011;15328;50.860;10.562;2023-04-03T06:48:49;11.00;;;5.97;;
27999;SDS011;15328;50.860;10.562;2023-04-03T06:53:51;9.77;;;5.60;;
27999;SDS011;15328;50.860;10.562;2023-04-03T06:58:53;10.25;;;6.15;;
27999;SDS011;15328;50.860;10.562;2023-04-03T07:03:57;9.75;;;5.88;;
27999;SDS011;15328;50.860;10.562;2023-04-03T07:08:58;10.45;;;6.50;;
27999;SDS011;15328;50.860;10.562;2023-04-03T07:13:58;11.23;;;6.80;;
27999;SDS011;15328;50.860;10.562;2023-04-03T07:18:58;12.32;;;7.13;;
27999;SDS011;15328;50.860;10.562;2023-04-03T07:23:59;11.87;;;6.43;;
27999;SDS011;15328;50.860;10.562;2023-04-03T07:28:59;14.85;;;7.03;;
27999;SDS011;15328;50.860;10.562;2023-04-03T07:33:59;11.95;;;5.78;;
27999;SDS011;15328;50.860;10.562;2023-04-03T07:39:00;11.75;;;6.20;;
27999;SDS011;15328;50.860;10.562;2023-04-03T07:44:00;14.57;;;6.50;;
27999;SDS011;15328;50.860;10.562;2023-04-03T07:49:01;13.48;;;5.47;;
27999;SDS011;15328;50.860;10.562;2023-04-03T07:54:01;11.63;;;5.35;;
27999;SDS011;15328;50.860;10.562;2023-04-03T07:59:02;11.18;;;4.88;;
27999;SDS011;15328;50.860;10.562;2023-04-03T08:04:06;9.80;;;4.60;;
27999;SDS011;15328;50.860;10.562;2023-04-03T08:09:06;8.90;;;3.97;;
27999;SDS011;15328;50.860;10.562;2023-04-03T08:14:07;8.75;;;5.22;;
27999;SDS011;15328;50.860;10.562;2023-04-03T08:19:07;9.07;;;3.72;;
27999;SDS011;15328;50.860;10.562;2023-04-03T08:24:08;16.58;;;6.85;;
27999;SDS011;15328;50.860;10.562;2023-04-03T08:29:09;20.10;;;8.80;;
27999;SDS011;15328;50.860;10.562;2023-04-03T08:34:09;22.13;;;9.48;;
27999;SDS011;15328;50.860;10.562;2023-04-03T08:39:10;21.13;;;9.52;;
27999;SDS011;15328;50.860;10.562;2023-04-03T08:44:15;18.17;;;8.40;;
27999;SDS011;15328;50.860;10.562;2023-04-03T08:49:37;12.93;;;6.00;;
27999;SDS011;15328;50.860;10.562;2023-04-03T08:59:53;9.13;;;4.25;;
27999;SDS011;15328;50.860;10.562;2023-04-03T09:04:53;5.78;;;2.60;;
27999;SDS011;15328;50.860;10.562;2023-04-03T09:09:54;8.32;;;2.13;;
27999;SDS011;15328;50.860;10.562;2023-04-03T09:20:12;3.65;;;1.77;;
27999;SDS011;15328;50.860;10.562;2023-04-03T09:25:22;3.60;;;1.35;;
27999;SDS011;15328;50.860;10.562;2023-04-03T09:30:26;5.13;;;2.00;;
27999;SDS011;15328;50.860;10.562;2023-04-03T09:35:28;5.85;;;1.90;;
27999;SDS011;15328;50.860;10.562;2023-04-03T09:40:35;7.78;;;1.52;;
27999;SDS011;15328;50.860;10.562;2023-04-03T09:45:39;5.57;;;1.65;;
27999;SDS011;15328;50.860;10.562;2023-04-03T09:55:50;4.55;;;1.20;;
27999;SDS011;15328;50.860;10.562;2023-04-03T10:00:56;4.28;;;1.10;;
27999;SDS011;15328;50.860;10.562;2023-04-03T10:05:59;6.07;;;1.67;;
27999;SDS011;15328;50.860;10.562;2023-04-03T10:16:10;3.10;;;0.90;;
27999;SDS011;15328;50.860;10.562;2023-04-03T10:31:45;4.38;;;1.23;;
27999;SDS011;15328;50.860;10.562;2023-04-03T10:58:14;3.28;;;1.40;;
27999;SDS011;15328;50.860;10.562;2023-04-03T11:03:42;2.03;;;1.03;;
27999;SDS011;15328;50.860;10.562;2023-04-03T11:08:50;4.90;;;1.23;;
27999;SDS011;15328;50.860;10.562;2023-04-03T11:19:45;2.53;;;1.20;;
27999;SDS011;15328;50.860;10.562;2023-04-03T11:24:56;5.50;;;1.05;;
27999;SDS011;15328;50.860;10.562;2023-04-03T11:30:02;5.25;;;1.25;;
27999;SDS011;15328;50.860;10.562;2023-04-03T11:35:09;3.85;;;1.27;;
27999;SDS011;15328;50.860;10.562;2023-04-03T12:00:52;3.60;;;1.65;;
27999;SDS011;15328;50.860;10.562;2023-04-03T12:11:29;4.00;;;1.30;;
27999;SDS011;15328;50.860;10.562;2023-04-03T12:37:42;4.32;;;1.60;;
27999;SDS011;15328;50.860;10.562;2023-04-03T12:48:15;3.10;;;1.30;;
27999;SDS011;15328;50.860;10.562;2023-04-03T12:53:27;5.35;;;1.60;;
27999;SDS011;15328;50.860;10.562;2023-04-03T12:58:30;5.00;;;1.42;;
27999;SDS011;15328;50.860;10.562;2023-04-03T13:03:31;3.35;;;1.23;;
27999;SDS011;15328;50.860;10.562;2023-04-03T13:08:31;6.18;;;1.40;;
27999;SDS011;15328;50.860;10.562;2023-04-03T13:13:32;4.68;;;1.30;;
27999;SDS011;15328;50.860;10.562;2023-04-03T13:18:33;3.60;;;1.35;;
27999;SDS011;15328;50.860;10.562;2023-04-03T13:23:36;3.40;;;1.30;;
27999;SDS011;15328;50.860;10.562;2023-04-03T13:28:39;3.25;;;1.40;;
27999;SDS011;15328;50.860;10.562;2023-04-03T13:49:35;4.55;;;1.73;;
27999;SDS011;15328;50.860;10.562;2023-04-03T13:54:37;1.95;;;1.00;;
27999;SDS011;15328;50.860;10.562;2023-04-03T13:59:39;2.58;;;1.08;;
27999;SDS011;15328;50.860;10.562;2023-04-03T14:09:40;4.13;;;0.95;;
27999;SDS011;15328;50.860;10.562;2023-04-03T14:14:40;3.13;;;1.00;;
27999;SDS011;15328;50.860;10.562;2023-04-03T14:19:41;4.57;;;1.25;;
27999;SDS011;15328;50.860;10.562;2023-04-03T14:24:41;6.25;;;1.40;;
27999;SDS011;15328;50.860;10.562;2023-04-03T14:29:43;2.95;;;1.27;;
27999;SDS011;15328;50.860;10.562;2023-04-03T14:34:44;3.67;;;1.48;;
27999;SDS011;15328;50.860;10.562;2023-04-03T14:39:45;3.03;;;1.27;;
27999;SDS011;15328;50.860;10.562;2023-04-03T14:44:46;3.67;;;1.50;;
27999;SDS011;15328;50.860;10.562;2023-04-03T14:49:47;3.72;;;1.25;;
27999;SDS011;15328;50.860;10.562;2023-04-03T14:54:48;2.45;;;1.25;;
27999;SDS011;15328;50.860;10.562;2023-04-03T14:59:49;3.35;;;1.13;;
27999;SDS011;15328;50.860;10.562;2023-04-03T15:04:50;5.95;;;1.80;;
27999;SDS011;15328;50.860;10.562;2023-04-03T15:09:50;3.33;;;1.67;;
27999;SDS011;15328;50.860;10.562;2023-04-03T15:14:51;2.97;;;1.40;;
27999;SDS011;15328;50.860;10.562;2023-04-03T15:19:51;4.95;;;1.60;;
27999;SDS011;15328;50.860;10.562;2023-04-03T15:24:51;5.72;;;1.95;;
27999;SDS011;15328;50.860;10.562;2023-04-03T15:29:52;6.13;;;1.65;;
27999;SDS011;15328;50.860;10.562;2023-04-03T15:34:53;4.88;;;1.27;;
27999;SDS011;15328;50.860;10.562;2023-04-03T15:39:54;4.55;;;1.30;;
27999;SDS011;15328;50.860;10.562;2023-04-03T15:44:54;3.70;;;1.08;;
27999;SDS011;15328;50.860;10.562;2023-04-03T15:49:56;4.40;;;1.40;;
27999;SDS011;15328;50.860;10.562;2023-04-03T15:54:56;5.30;;;1.38;;
27999;SDS011;15328;50.860;10.562;2023-04-03T15:59:57;8.23;;;3.70;;
27999;SDS011;15328;50.860;10.562;2023-04-03T16:04:57;3.78;;;1.30;;
27999;SDS011;15328;50.860;10.562;2023-04-03T16:09:58;4.53;;;1.55;;
27999;SDS011;15328;50.860;10.562;2023-04-03T16:15:02;5.82;;;2.35;;
27999;SDS011;15328;50.860;10.562;2023-04-03T16:20:05;6.60;;;1.88;;
27999;SDS011;15328;50.860;10.562;2023-04-03T16:25:07;3.35;;;1.67;;
27999;SDS011;15328;50.860;10.562;2023-04-03T16:30:08;4.78;;;1.70;;
27999;SDS011;15328;50.860;10.562;2023-04-03T16:35:09;4.07;;;1.90;;
27999;SDS011;15328;50.860;10.562;2023-04-03T16:40:10;4.63;;;1.60;;
27999;SDS011;15328;50.860;10.562;2023-04-03T16:45:12;8.50;;;1.92;;
27999;SDS011;15328;50.860;10.562;2023-04-03T16:50:13;10.30;;;3.90;;
27999;SDS011;15328;50.860;10.562;2023-04-03T16:55:13;7.95;;;3.17;;
27999;SDS011;15328;50.860;10.562;2023-04-03T17:00:14;7.60;;;3.10;;
27999;SDS011;15328;50.860;10.562;2023-04-03T17:05:15;4.95;;;2.42;;
27999;SDS011;15328;50.860;10.562;2023-04-03T17:10:15;5.22;;;2.38;;
27999;SDS011;15328;50.860;10.562;2023-04-03T17:15:16;5.40;;;2.10;;
27999;SDS011;15328;50.860;10.562;2023-04-03T17:20:16;9.82;;;3.03;;
27999;SDS011;15328;50.860;10.562;2023-04-03T17:25:17;9.88;;;1.50;;
27999;SDS011;15328;50.860;10.562;2023-04-03T17:30:17;7.43;;;2.35;;
27999;SDS011;15328;50.860;10.562;2023-04-03T17:35:18;5.13;;;1.52;;
27999;SDS011;15328;50.860;10.562;2023-04-03T17:40:18;6.80;;;2.45;;
27999;SDS011;15328;50.860;10.562;2023-04-03T17:45:19;5.63;;;1.92;;
27999;SDS011;15328;50.860;10.562;2023-04-03T17:50:19;6.20;;;1.47;;
27999;SDS011;15328;50.860;10.562;2023-04-03T17:55:19;7.30;;;2.10;;
27999;SDS011;15328;50.860;10.562;2023-04-03T18:00:20;4.75;;;1.67;;
27999;SDS011;15328;50.860;10.562;2023-04-03T18:05:20;4.47;;;1.60;;
27999;SDS011;15328;50.860;10.562;2023-04-03T18:10:21;3.20;;;1.30;;
27999;SDS011;15328;50.860;10.562;2023-04-03T18:15:22;4.18;;;1.55;;
27999;SDS011;15328;50.860;10.562;2023-04-03T18:20:24;6.75;;;1.73;;
27999;SDS011;15328;50.860;10.562;2023-04-03T18:25:24;5.18;;;1.65;;
27999;SDS011;15328;50.860;10.562;2023-04-03T18:30:25;6.20;;;2.20;;
27999;SDS011;15328;50.860;10.562;2023-04-03T18:35:25;3.95;;;1.42;;
27999;SDS011;15328;50.860;10.562;2023-04-03T18:40:26;3.97;;;1.75;;
27999;SDS011;15328;50.860;10.562;2023-04-03T18:45:26;11.25;;;3.65;;
27999;SDS011;15328;50.860;10.562;2023-04-03T18:50:27;19.30;;;5.85;;
27999;SDS011;15328;50.860;10.562;2023-04-03T18:55:29;6.15;;;2.65;;
27999;SDS011;15328;50.860;10.562;2023-04-03T19:00:30;6.05;;;2.28;;
27999;SDS011;15328;50.860;10.562;2023-04-03T19:05:30;8.32;;;2.53;;
27999;SDS011;15328;50.860;10.562;2023-04-03T19:10:31;5.60;;;1.83;;
27999;SDS011;15328;50.860;10.562;2023-04-03T19:15:31;3.80;;;1.45;;
27999;SDS011;15328;50.860;10.562;2023-04-03T19:20:32;6.07;;;1.70;;
27999;SDS011;15328;50.860;10.562;2023-04-03T19:25:32;2.83;;;1.30;;
27999;SDS011;15328;50.860;10.562;2023-04-03T19:30:33;2.45;;;1.40;;
27999;SDS011;15328;50.860;10.562;2023-04-03T19:35:38;3.47;;;1.45;;
27999;SDS011;15328;50.860;10.562;2023-04-03T19:40:39;3.67;;;1.58;;
27999;SDS011;15328;50.860;10.562;2023-04-03T19:45:42;3.85;;;1.65;;
27999;SDS011;15328;50.860;10.562;2023-04-03T19:50:45;4.70;;;1.88;;
27999;SDS011;15328;50.860;10.562;2023-04-03T19:55:46;5.72;;;2.20;;
27999;SDS011;15328;50.860;10.562;2023-04-03T20:00:49;6.65;;;1.90;;
27999;SDS011;15328;50.860;10.562;2023-04-03T20:05:51;3.85;;;1.25;;
27999;SDS011;15328;50.860;10.562;2023-04-03T20:10:52;6.45;;;1.80;;
27999;SDS011;15328;50.860;10.562;2023-04-03T20:15:52;4.78;;;1.80;;
27999;SDS011;15328;50.860;10.562;2023-04-03T20:20:53;4.85;;;1.50;;
27999;SDS011;15328;50.860;10.562;2023-04-03T20:25:56;2.97;;;1.60;;
27999;SDS011;15328;50.860;10.562;2023-04-03T20:30:57;3.53;;;1.83;;
27999;SDS011;15328;50.860;10.562;2023-04-03T20:36:01;5.53;;;1.83;;
27999;SDS011;15328;50.860;10.562;2023-04-03T20:41:03;2.70;;;1.63;;
27999;SDS011;15328;50.860;10.562;2023-04-03T20:46:04;5.10;;;1.73;;
27999;SDS011;15328;50.860;10.562;2023-04-03T20:51:11;3.17;;;1.35;;
27999;SDS011;15328;50.860;10.562;2023-04-03T20:56:17;4.18;;;1.63;;
27999;SDS011;15328;50.860;10.562;2023-04-03T21:01:19;3.63;;;1.60;;
27999;SDS011;15328;50.860;10.562;2023-04-03T21:23:07;4.68;;;1.75;;
27999;SDS011;15328;50.860;10.562;2023-04-03T21:28:07;3.30;;;1.40;;
27999;SDS011;15328;50.860;10.562;2023-04-03T21:33:08;2.90;;;1.48;;
27999;SDS011;15328;50.860;10.562;2023-04-03T21:38:08;2.78;;;1.48;;
27999;SDS011;15328;50.860;10.562;2023-04-03T21:43:09;3.50;;;1.60;;
27999;SDS011;15328;50.860;10.562;2023-04-03T21:48:09;4.03;;;1.97;;
27999;SDS011;15328;50.860;10.562;2023-04-03T21:53:12;3.25;;;1.40;;
27999;SDS011;15328;50.860;10.562;2023-04-03T21:58:14;3.65;;;1.50;;
27999;SDS011;15328;50.860;10.562;2023-04-03T22:03:18;3.03;;;1.58;;
27999;SDS011;15328;50.860;10.562;2023-04-03T22:08:19;4.25;;;1.85;;
27999;SDS011;15328;50.860;10.562;2023-04-03T22:13:20;2.50;;;1.90;;
27999;SDS011;15328;50.860;10.562;2023-04-03T22:18:20;4.43;;;2.20;;
27999;SDS011;15328;50.860;10.562;2023-04-03T22:23:21;3.90;;;2.33;;
27999;SDS011;15328;50.860;10.562;2023-04-03T22:28:21;3.15;;;2.20;;
27999;SDS011;15328;50.860;10.562;2023-04-03T22:33:22;3.17;;;2.22;;
27999;SDS011;15328;50.860;10.562;2023-04-03T22:38:22;3.53;;;2.10;;
27999;SDS011;15328;50.860;10.562;2023-04-03T22:43:23;2.92;;;2.05;;
27999;SDS011;15328;50.860;10.562;2023-04-03T22:48:27;3.85;;;2.05;;
27999;SDS011;15328;50.860;10.562;2023-04-03T22:53:28;4.20;;;2.47;;
27999;SDS011;15328;50.860;10.562;2023-04-03T22:58:29;6.75;;;2.67;;
27999;SDS011;15328;50.860;10.562;2023-04-03T23:03:29;5.38;;;2.88;;
27999;SDS011;15328;50.860;10.562;2023-04-03T23:08:30;7.78;;;3.25;;
27999;SDS011;15328;50.860;10.562;2023-04-03T23:13:32;7.13;;;3.35;;
27999;SDS011;15328;50.860;10.562;2023-04-03T23:18:32;5.75;;;2.97;;
27999;SDS011;15328;50.860;10.562;2023-04-03T23:23:33;4.72;;;3.42;;
27999;SDS011;15328;50.860;10.562;2023-04-03T23:28:33;5.30;;;2.70;;
27999;SDS011;15328;50.860;10.562;2023-04-03T23:33:35;6.10;;;3.22;;
27999;SDS011;15328;50.860;10.562;2023-04-03T23:38:36;6.00;;;3.60;;
27999;SDS011;15328;50.860;10.562;2023-04-03T23:43:37;5.40;;;3.60;;
27999;SDS011;15328;50.860;10.562;2023-04-03T23:48:38;4.10;;;3.22;;
27999;SDS011;15328;50.860;10.562;2023-04-03T23:53:39;3.72;;;2.60;;
27999;SDS011;15328;50.860;10.562;2023-04-03T23:58:39;5.15;;;2.90;;
